sensor_id;sensor_type;location;lat;lon;timestamp;temperature;humidity
59572;DHT22;59406;45.602;11.904;2023-02-28T00:00:17;3.40;74.70
59572;DHT22;59406;45.602;11.904;2023-02-28T00:02:45;3.40;74.90
59572;DHT22;59406;45.602;11.904;2023-02-28T00:05:13;3.50;74.90
59572;DHT22;59406;45.602;11.904;2023-02-28T00:07:39;3.30;75.10
59572;DHT22;59406;45.602;11.904;2023-02-28T00:10:07;3.30;74.90
59572;DHT22;59406;45.602;11.904;2023-02-28T00:12:34;3.40;74.80
59572;DHT22;59406;45.602;11.904;2023-02-28T00:15:01;3.10;74.60
59572;DHT22;59406;45.602;11.904;2023-02-28T00:17:28;3.30;74.90
59572;DHT22;59406;45.602;11.904;2023-02-28T00:19:54;3.30;74.70
59572;DHT22;59406;45.602;11.904;2023-02-28T00:22:20;3.30;75.00
59572;DHT22;59406;45.602;11.904;2023-02-28T00:24:46;3.30;75.00
59572;DHT22;59406;45.602;11.904;2023-02-28T00:27:13;3.30;75.10
59572;DHT22;59406;45.602;11.904;2023-02-28T00:29:40;3.10;75.00
59572;DHT22;59406;45.602;11.904;2023-02-28T00:32:06;3.10;75.00
59572;DHT22;59406;45.602;11.904;2023-02-28T00:34:32;3.20;75.10
59572;DHT22;59406;45.602;11.904;2023-02-28T00:37:07;3.10;74.90
59572;DHT22;59406;45.602;11.904;2023-02-28T00:39:36;3.00;75.00
59572;DHT22;59406;45.602;11.904;2023-02-28T00:42:02;3.10;75.30
59572;DHT22;59406;45.602;11.904;2023-02-28T00:44:29;2.90;75.00
59572;DHT22;59406;45.602;11.904;2023-02-28T00:46:56;3.00;75.40
59572;DHT22;59406;45.602;11.904;2023-02-28T00:49:22;3.10;75.20
59572;DHT22;59406;45.602;11.904;2023-02-28T00:51:48;3.20;75.10
59572;DHT22;59406;45.602;11.904;2023-02-28T00:54:17;3.00;75.10
59572;DHT22;59406;45.602;11.904;2023-02-28T00:56:43;2.90;75.20
59572;DHT22;59406;45.602;11.904;2023-02-28T00:59:12;2.90;75.40
59572;DHT22;59406;45.602;11.904;2023-02-28T01:01:38;2.80;75.30
59572;DHT22;59406;45.602;11.904;2023-02-28T01:04:05;2.90;75.80
59572;DHT22;59406;45.602;11.904;2023-02-28T01:06:31;2.60;75.50
59572;DHT22;59406;45.602;11.904;2023-02-28T01:08:58;2.70;75.50
59572;DHT22;59406;45.602;11.904;2023-02-28T01:11:24;2.70;75.20
59572;DHT22;59406;45.602;11.904;2023-02-28T01:13:51;2.70;75.20
59572;DHT22;59406;45.602;11.904;2023-02-28T01:16:17;2.70;75.30
59572;DHT22;59406;45.602;11.904;2023-02-28T01:18:43;2.70;75.20
59572;DHT22;59406;45.602;11.904;2023-02-28T01:21:13;2.90;75.30
59572;DHT22;59406;45.602;11.904;2023-02-28T01:23:39;2.70;75.40
59572;DHT22;59406;45.602;11.904;2023-02-28T01:26:07;2.60;75.30
59572;DHT22;59406;45.602;11.904;2023-02-28T01:28:33;2.70;75.50
59572;DHT22;59406;45.602;11.904;2023-02-28T01:31:00;2.60;75.50
59572;DHT22;59406;45.602;11.904;2023-02-28T01:33:26;2.60;75.80
59572;DHT22;59406;45.602;11.904;2023-02-28T01:36:11;2.70;75.90
59572;DHT22;59406;45.602;11.904;2023-02-28T01:38:37;2.70;75.70
59572;DHT22;59406;45.602;11.904;2023-02-28T01:41:04;2.60;75.70
59572;DHT22;59406;45.602;11.904;2023-02-28T01:43:53;2.50;75.80
59572;DHT22;59406;45.602;11.904;2023-02-28T01:46:18;2.50;75.70
59572;DHT22;59406;45.602;11.904;2023-02-28T01:49:09;2.60;75.60
59572;DHT22;59406;45.602;11.904;2023-02-28T01:51:53;2.60;76.00
59572;DHT22;59406;45.602;11.904;2023-02-28T01:54:30;2.30;76.10
59572;DHT22;59406;45.602;11.904;2023-02-28T01:57:10;2.50;75.90
59572;DHT22;59406;45.602;11.904;2023-02-28T02:02:17;2.50;76.10
59572;DHT22;59406;45.602;11.904;2023-02-28T02:04:51;2.70;76.10
59572;DHT22;59406;45.602;11.904;2023-02-28T02:07:19;2.70;75.80
59572;DHT22;59406;45.602;11.904;2023-02-28T02:09:45;2.80;75.90
59572;DHT22;59406;45.602;11.904;2023-02-28T02:17:53;2.90;75.70
59572;DHT22;59406;45.602;11.904;2023-02-28T02:26:16;2.70;76.00
59572;DHT22;59406;45.602;11.904;2023-02-28T02:29:03;2.90;75.70
59572;DHT22;59406;45.602;11.904;2023-02-28T02:34:43;3.20;75.60
59572;DHT22;59406;45.602;11.904;2023-02-28T02:37:26;3.10;75.80
59572;DHT22;59406;45.602;11.904;2023-02-28T02:45:42;3.10;76.20
59572;DHT22;59406;45.602;11.904;2023-02-28T02:48:11;3.20;75.60
59572;DHT22;59406;45.602;11.904;2023-02-28T02:51:01;3.30;75.60
59572;DHT22;59406;45.602;11.904;2023-02-28T02:53:36;3.40;75.50
59572;DHT22;59406;45.602;11.904;2023-02-28T02:56:06;3.40;75.60
59572;DHT22;59406;45.602;11.904;2023-02-28T02:58:37;3.50;75.60
59572;DHT22;59406;45.602;11.904;2023-02-28T03:01:09;3.60;75.60
59572;DHT22;59406;45.602;11.904;2023-02-28T03:03:36;3.60;75.60
59572;DHT22;59406;45.602;11.904;2023-02-28T03:06:02;3.60;75.50
59572;DHT22;59406;45.602;11.904;2023-02-28T03:08:34;3.60;75.40
59572;DHT22;59406;45.602;11.904;2023-02-28T03:11:05;3.60;75.50
59572;DHT22;59406;45.602;11.904;2023-02-28T03:31:06;4.00;75.40
59572;DHT22;59406;45.602;11.904;2023-02-28T03:36:34;4.00;75.40
59572;DHT22;59406;45.602;11.904;2023-02-28T03:39:08;4.10;75.30
59572;DHT22;59406;45.602;11.904;2023-02-28T03:41:55;4.10;75.40
59572;DHT22;59406;45.602;11.904;2023-02-28T03:44:33;4.20;75.40
59572;DHT22;59406;45.602;11.904;2023-02-28T03:47:32;3.80;75.50
59572;DHT22;59406;45.602;11.904;2023-02-28T03:52:40;4.00;75.50
59572;DHT22;59406;45.602;11.904;2023-02-28T03:55:11;4.10;75.40
59572;DHT22;59406;45.602;11.904;2023-02-28T03:57:59;4.00;75.60
59572;DHT22;59406;45.602;11.904;2023-02-28T04:00:37;4.00;75.70
59572;DHT22;59406;45.602;11.904;2023-02-28T04:03:05;3.80;75.70
59572;DHT22;59406;45.602;11.904;2023-02-28T04:05:31;4.00;75.50
59572;DHT22;59406;45.602;11.904;2023-02-28T04:08:05;3.80;75.50
59572;DHT22;59406;45.602;11.904;2023-02-28T04:10:31;3.80;75.70
59572;DHT22;59406;45.602;11.904;2023-02-28T04:12:57;3.90;75.60
59572;DHT22;59406;45.602;11.904;2023-02-28T04:15:23;3.90;75.60
59572;DHT22;59406;45.602;11.904;2023-02-28T04:17:50;4.00;75.50
59572;DHT22;59406;45.602;11.904;2023-02-28T04:20:16;3.90;75.50
59572;DHT22;59406;45.602;11.904;2023-02-28T04:22:42;4.00;75.60
59572;DHT22;59406;45.602;11.904;2023-02-28T04:25:08;3.90;75.50
59572;DHT22;59406;45.602;11.904;2023-02-28T04:27:34;4.00;75.70
59572;DHT22;59406;45.602;11.904;2023-02-28T04:29:59;4.20;75.50
59572;DHT22;59406;45.602;11.904;2023-02-28T04:32:25;4.10;75.80
59572;DHT22;59406;45.602;11.904;2023-02-28T04:34:51;3.80;75.90
59572;DHT22;59406;45.602;11.904;2023-02-28T04:37:17;4.10;75.60
59572;DHT22;59406;45.602;11.904;2023-02-28T04:39:43;4.00;75.90
59572;DHT22;59406;45.602;11.904;2023-02-28T04:42:09;3.90;75.90
59572;DHT22;59406;45.602;11.904;2023-02-28T04:44:35;4.00;75.80
59572;DHT22;59406;45.602;11.904;2023-02-28T04:47:00;4.10;75.70
59572;DHT22;59406;45.602;11.904;2023-02-28T04:49:26;4.10;75.60
59572;DHT22;59406;45.602;11.904;2023-02-28T04:51:52;4.20;75.70
59572;DHT22;59406;45.602;11.904;2023-02-28T04:54:18;4.00;75.50
59572;DHT22;59406;45.602;11.904;2023-02-28T04:56:44;4.00;75.60
59572;DHT22;59406;45.602;11.904;2023-02-28T04:59:10;4.00;75.60
59572;DHT22;59406;45.602;11.904;2023-02-28T05:01:36;4.10;75.70
59572;DHT22;59406;45.602;11.904;2023-02-28T05:04:03;3.90;75.70
59572;DHT22;59406;45.602;11.904;2023-02-28T05:06:33;3.90;75.70
59572;DHT22;59406;45.602;11.904;2023-02-28T05:08:59;4.20;75.60
59572;DHT22;59406;45.602;11.904;2023-02-28T05:11:28;4.30;75.70
59572;DHT22;59406;45.602;11.904;2023-02-28T05:13:59;3.90;75.60
59572;DHT22;59406;45.602;11.904;2023-02-28T05:16:25;4.00;75.70
59572;DHT22;59406;45.602;11.904;2023-02-28T05:18:50;4.00;75.60
59572;DHT22;59406;45.602;11.904;2023-02-28T05:23:54;4.10;75.80
59572;DHT22;59406;45.602;11.904;2023-02-28T05:26:20;4.00;75.60
59572;DHT22;59406;45.602;11.904;2023-02-28T05:28:46;4.10;75.60
59572;DHT22;59406;45.602;11.904;2023-02-28T05:31:13;3.80;75.60
59572;DHT22;59406;45.602;11.904;2023-02-28T05:33:39;3.90;75.60
59572;DHT22;59406;45.602;11.904;2023-02-28T05:36:06;3.80;75.60
59572;DHT22;59406;45.602;11.904;2023-02-28T05:38:32;4.00;75.60
59572;DHT22;59406;45.602;11.904;2023-02-28T05:40:58;3.70;75.70
59572;DHT22;59406;45.602;11.904;2023-02-28T05:43:24;3.80;76.00
59572;DHT22;59406;45.602;11.904;2023-02-28T05:45:51;3.70;75.80
59572;DHT22;59406;45.602;11.904;2023-02-28T05:48:17;3.70;75.80
59572;DHT22;59406;45.602;11.904;2023-02-28T05:50:43;3.90;75.70
59572;DHT22;59406;45.602;11.904;2023-02-28T05:53:11;3.70;75.90
59572;DHT22;59406;45.602;11.904;2023-02-28T05:55:37;3.90;75.80
59572;DHT22;59406;45.602;11.904;2023-02-28T05:58:03;3.90;75.80
59572;DHT22;59406;45.602;11.904;2023-02-28T06:00:29;3.80;75.90
59572;DHT22;59406;45.602;11.904;2023-02-28T06:02:55;3.90;75.90
59572;DHT22;59406;45.602;11.904;2023-02-28T06:05:27;4.10;75.80
59572;DHT22;59406;45.602;11.904;2023-02-28T06:07:53;4.00;75.80
59572;DHT22;59406;45.602;11.904;2023-02-28T06:10:19;3.90;75.80
59572;DHT22;59406;45.602;11.904;2023-02-28T06:12:45;3.90;75.90
59572;DHT22;59406;45.602;11.904;2023-02-28T06:15:15;4.20;75.60
59572;DHT22;59406;45.602;11.904;2023-02-28T06:17:43;4.30;75.70
59572;DHT22;59406;45.602;11.904;2023-02-28T06:20:10;4.50;75.60
59572;DHT22;59406;45.602;11.904;2023-02-28T06:22:38;4.70;75.70
59572;DHT22;59406;45.602;11.904;2023-02-28T06:25:05;4.80;75.40
59572;DHT22;59406;45.602;11.904;2023-02-28T06:27:32;5.00;75.30
59572;DHT22;59406;45.602;11.904;2023-02-28T06:29:58;5.10;75.20
59572;DHT22;59406;45.602;11.904;2023-02-28T06:32:24;5.50;75.20
59572;DHT22;59406;45.602;11.904;2023-02-28T06:34:50;5.80;75.10
59572;DHT22;59406;45.602;11.904;2023-02-28T06:37:17;6.20;75.10
59572;DHT22;59406;45.602;11.904;2023-02-28T06:39:43;6.60;74.90
59572;DHT22;59406;45.602;11.904;2023-02-28T06:42:09;6.90;74.90
59572;DHT22;59406;45.602;11.904;2023-02-28T06:44:35;7.30;74.70
59572;DHT22;59406;45.602;11.904;2023-02-28T06:47:06;7.80;74.40
59572;DHT22;59406;45.602;11.904;2023-02-28T06:49:34;8.10;74.10
59572;DHT22;59406;45.602;11.904;2023-02-28T06:52:00;8.40;73.50
59572;DHT22;59406;45.602;11.904;2023-02-28T06:54:26;8.60;73.60
59572;DHT22;59406;45.602;11.904;2023-02-28T06:56:52;8.60;73.60
59572;DHT22;59406;45.602;11.904;2023-02-28T06:59:19;8.40;73.10
59572;DHT22;59406;45.602;11.904;2023-02-28T07:01:45;8.30;72.80
59572;DHT22;59406;45.602;11.904;2023-02-28T07:04:11;8.40;73.30
59572;DHT22;59406;45.602;11.904;2023-02-28T07:06:38;8.50;73.10
59572;DHT22;59406;45.602;11.904;2023-02-28T07:09:04;8.60;72.90
59572;DHT22;59406;45.602;11.904;2023-02-28T07:11:31;8.50;72.90
59572;DHT22;59406;45.602;11.904;2023-02-28T07:13:57;8.70;72.40
59572;DHT22;59406;45.602;11.904;2023-02-28T07:16:24;8.70;72.20
59572;DHT22;59406;45.602;11.904;2023-02-28T07:18:52;8.70;72.00
59572;DHT22;59406;45.602;11.904;2023-02-28T07:21:18;8.90;71.80
59572;DHT22;59406;45.602;11.904;2023-02-28T07:23:44;8.90;71.60
59572;DHT22;59406;45.602;11.904;2023-02-28T07:28:43;9.00;71.10
59572;DHT22;59406;45.602;11.904;2023-02-28T07:31:10;9.30;71.60
59572;DHT22;59406;45.602;11.904;2023-02-28T07:33:36;9.10;71.00
59572;DHT22;59406;45.602;11.904;2023-02-28T07:36:16;9.00;71.20
59572;DHT22;59406;45.602;11.904;2023-02-28T07:38:46;9.30;70.50
59572;DHT22;59406;45.602;11.904;2023-02-28T07:41:18;9.20;70.90
59572;DHT22;59406;45.602;11.904;2023-02-28T07:43:44;9.30;70.60
59572;DHT22;59406;45.602;11.904;2023-02-28T07:46:12;9.30;71.00
59572;DHT22;59406;45.602;11.904;2023-02-28T07:48:40;9.30;70.00
59572;DHT22;59406;45.602;11.904;2023-02-28T07:51:06;9.30;70.40
59572;DHT22;59406;45.602;11.904;2023-02-28T07:53:32;9.40;70.50
59572;DHT22;59406;45.602;11.904;2023-02-28T07:55:59;9.70;70.50
59572;DHT22;59406;45.602;11.904;2023-02-28T07:58:27;9.50;70.30
59572;DHT22;59406;45.602;11.904;2023-02-28T08:00:53;9.70;70.80
59572;DHT22;59406;45.602;11.904;2023-02-28T08:03:21;9.80;70.20
59572;DHT22;59406;45.602;11.904;2023-02-28T08:05:47;9.90;69.90
59572;DHT22;59406;45.602;11.904;2023-02-28T08:08:14;9.80;70.20
59572;DHT22;59406;45.602;11.904;2023-02-28T08:10:40;10.10;70.60
59572;DHT22;59406;45.602;11.904;2023-02-28T08:13:06;10.30;69.80
59572;DHT22;59406;45.602;11.904;2023-02-28T08:15:32;10.90;69.10
59572;DHT22;59406;45.602;11.904;2023-02-28T08:17:57;11.00;68.70
59572;DHT22;59406;45.602;11.904;2023-02-28T08:20:24;11.10;69.10
59572;DHT22;59406;45.602;11.904;2023-02-28T08:22:50;11.10;68.80
59572;DHT22;59406;45.602;11.904;2023-02-28T08:25:16;11.10;68.70
59572;DHT22;59406;45.602;11.904;2023-02-28T08:27:42;11.20;68.40
59572;DHT22;59406;45.602;11.904;2023-02-28T08:30:11;11.40;68.10
59572;DHT22;59406;45.602;11.904;2023-02-28T08:32:38;11.30;68.30
59572;DHT22;59406;45.602;11.904;2023-02-28T08:35:04;11.50;68.40
59572;DHT22;59406;45.602;11.904;2023-02-28T08:37:30;11.80;68.50
59572;DHT22;59406;45.602;11.904;2023-02-28T08:39:56;12.40;68.30
59572;DHT22;59406;45.602;11.904;2023-02-28T08:42:23;12.50;67.60
59572;DHT22;59406;45.602;11.904;2023-02-28T08:44:49;12.70;67.40
59572;DHT22;59406;45.602;11.904;2023-02-28T08:47:15;12.90;66.40
59572;DHT22;59406;45.602;11.904;2023-02-28T08:49:40;13.20;66.20
59572;DHT22;59406;45.602;11.904;2023-02-28T08:52:06;13.30;65.60
59572;DHT22;59406;45.602;11.904;2023-02-28T08:54:32;13.40;65.20
59572;DHT22;59406;45.602;11.904;2023-02-28T08:57:00;13.50;65.00
59572;DHT22;59406;45.602;11.904;2023-02-28T08:59:26;13.70;65.30
59572;DHT22;59406;45.602;11.904;2023-02-28T09:01:52;14.10;65.40
59572;DHT22;59406;45.602;11.904;2023-02-28T09:04:18;14.10;65.10
59572;DHT22;59406;45.602;11.904;2023-02-28T09:06:44;14.20;64.80
59572;DHT22;59406;45.602;11.904;2023-02-28T09:09:10;14.30;64.60
59572;DHT22;59406;45.602;11.904;2023-02-28T09:11:37;14.50;64.60
59572;DHT22;59406;45.602;11.904;2023-02-28T09:14:03;14.60;64.30
59572;DHT22;59406;45.602;11.904;2023-02-28T09:16:30;14.20;64.70
59572;DHT22;59406;45.602;11.904;2023-02-28T09:18:57;13.50;64.70
59572;DHT22;59406;45.602;11.904;2023-02-28T09:21:23;13.30;65.50
59572;DHT22;59406;45.602;11.904;2023-02-28T09:23:50;14.20;65.40
59572;DHT22;59406;45.602;11.904;2023-02-28T09:26:20;13.90;64.50
59572;DHT22;59406;45.602;11.904;2023-02-28T09:28:46;14.40;64.20
59572;DHT22;59406;45.602;11.904;2023-02-28T09:31:14;14.50;65.10
59572;DHT22;59406;45.602;11.904;2023-02-28T09:33:40;13.90;64.50
59572;DHT22;59406;45.602;11.904;2023-02-28T09:36:06;13.30;65.20
59572;DHT22;59406;45.602;11.904;2023-02-28T09:38:32;12.80;65.70
59572;DHT22;59406;45.602;11.904;2023-02-28T09:41:08;12.80;65.20
59572;DHT22;59406;45.602;11.904;2023-02-28T09:43:38;13.40;65.30
59572;DHT22;59406;45.602;11.904;2023-02-28T09:46:37;13.50;64.60
59572;DHT22;59406;45.602;11.904;2023-02-28T09:49:16;13.80;64.10
59572;DHT22;59406;45.602;11.904;2023-02-28T09:54:14;14.10;64.20
59572;DHT22;59406;45.602;11.904;2023-02-28T09:57:29;14.20;64.00
59572;DHT22;59406;45.602;11.904;2023-02-28T09:59:47;14.50;64.30
59572;DHT22;59406;45.602;11.904;2023-02-28T10:05:11;14.80;63.60
59572;DHT22;59406;45.602;11.904;2023-02-28T10:07:59;15.10;64.30
59572;DHT22;59406;45.602;11.904;2023-02-28T10:10:49;15.40;63.20
59572;DHT22;59406;45.602;11.904;2023-02-28T10:13:22;15.60;52.50
59572;DHT22;59406;45.602;11.904;2023-02-28T10:15:55;15.20;52.20
59572;DHT22;59406;45.602;11.904;2023-02-28T10:18:26;15.40;63.20
59572;DHT22;59406;45.602;11.904;2023-02-28T10:20:53;15.10;63.00
59572;DHT22;59406;45.602;11.904;2023-02-28T10:23:28;15.10;63.40
59572;DHT22;59406;45.602;11.904;2023-02-28T10:25:58;14.70;63.60
59572;DHT22;59406;45.602;11.904;2023-02-28T10:28:25;15.10;63.40
59572;DHT22;59406;45.602;11.904;2023-02-28T10:30:53;15.50;53.30
59572;DHT22;59406;45.602;11.904;2023-02-28T10:33:32;15.40;64.00
59572;DHT22;59406;45.602;11.904;2023-02-28T10:36:00;14.00;64.20
59572;DHT22;59406;45.602;11.904;2023-02-28T10:38:32;13.90;64.60
59572;DHT22;59406;45.602;11.904;2023-02-28T10:41:32;14.80;64.30
59572;DHT22;59406;45.602;11.904;2023-02-28T10:44:21;15.00;63.60
59572;DHT22;59406;45.602;11.904;2023-02-28T10:46:48;15.60;54.80
59572;DHT22;59406;45.602;11.904;2023-02-28T10:49:26;15.00;63.70
59572;DHT22;59406;45.602;11.904;2023-02-28T10:52:00;15.80;53.00
59572;DHT22;59406;45.602;11.904;2023-02-28T10:54:35;16.40;52.70
59572;DHT22;59406;45.602;11.904;2023-02-28T10:57:20;16.60;52.20
59572;DHT22;59406;45.602;11.904;2023-02-28T10:59:52;16.60;51.20
59572;DHT22;59406;45.602;11.904;2023-02-28T11:02:35;15.10;63.20
59572;DHT22;59406;45.602;11.904;2023-02-28T11:05:24;15.90;52.50
59572;DHT22;59406;45.602;11.904;2023-02-28T11:10:21;16.10;52.20
59572;DHT22;59406;45.602;11.904;2023-02-28T11:12:49;16.10;52.50
59572;DHT22;59406;45.602;11.904;2023-02-28T11:20:38;17.30;49.50
59572;DHT22;59406;45.602;11.904;2023-02-28T11:23:11;16.40;50.50
59572;DHT22;59406;45.602;11.904;2023-02-28T11:25:39;16.90;51.50
59572;DHT22;59406;45.602;11.904;2023-02-28T11:28:22;16.80;51.00
59572;DHT22;59406;45.602;11.904;2023-02-28T11:33:43;15.80;50.60
59572;DHT22;59406;45.602;11.904;2023-02-28T11:38:48;15.90;52.70
59572;DHT22;59406;45.602;11.904;2023-02-28T11:41:55;16.90;50.90
59572;DHT22;59406;45.602;11.904;2023-02-28T11:47:04;17.40;49.30
59572;DHT22;59406;45.602;11.904;2023-02-28T11:49:50;17.50;49.20
59572;DHT22;59406;45.602;11.904;2023-02-28T11:52:36;17.10;48.00
59572;DHT22;59406;45.602;11.904;2023-02-28T11:55:27;17.30;50.40
59572;DHT22;59406;45.602;11.904;2023-02-28T12:03:43;16.70;50.40
59572;DHT22;59406;45.602;11.904;2023-02-28T12:06:27;16.80;50.00
59572;DHT22;59406;45.602;11.904;2023-02-28T12:14:53;17.50;49.50
59572;DHT22;59406;45.602;11.904;2023-02-28T12:17:43;17.40;50.20
59572;DHT22;59406;45.602;11.904;2023-02-28T12:20:18;17.20;48.80
59572;DHT22;59406;45.602;11.904;2023-02-28T12:25:30;16.90;48.30
59572;DHT22;59406;45.602;11.904;2023-02-28T12:28:02;16.60;51.40
59572;DHT22;59406;45.602;11.904;2023-02-28T12:30:32;15.70;51.90
59572;DHT22;59406;45.602;11.904;2023-02-28T12:33:11;15.90;53.00
59572;DHT22;59406;45.602;11.904;2023-02-28T12:35:45;16.80;50.50
59572;DHT22;59406;45.602;11.904;2023-02-28T12:41:00;17.90;47.50
59572;DHT22;59406;45.602;11.904;2023-02-28T12:43:35;18.30;45.50
59572;DHT22;59406;45.602;11.904;2023-02-28T12:46:21;16.70;48.00
59572;DHT22;59406;45.602;11.904;2023-02-28T12:48:55;16.70;51.60
59572;DHT22;59406;45.602;11.904;2023-02-28T12:51:23;17.00;48.80
59572;DHT22;59406;45.602;11.904;2023-02-28T12:54:01;16.80;49.40
59572;DHT22;59406;45.602;11.904;2023-02-28T12:57:06;16.40;50.60
59572;DHT22;59406;45.602;11.904;2023-02-28T13:00:25;16.50;49.70
59572;DHT22;59406;45.602;11.904;2023-02-28T13:02:47;16.80;49.70
59572;DHT22;59406;45.602;11.904;2023-02-28T13:08:59;15.70;51.80
59572;DHT22;59406;45.602;11.904;2023-02-28T13:11:39;16.60;49.40
59572;DHT22;59406;45.602;11.904;2023-02-28T13:16:56;17.60;47.60
59572;DHT22;59406;45.602;11.904;2023-02-28T13:19:33;18.20;47.80
59572;DHT22;59406;45.602;11.904;2023-02-28T13:22:01;17.80;48.50
59572;DHT22;59406;45.602;11.904;2023-02-28T13:24:57;18.80;45.80
59572;DHT22;59406;45.602;11.904;2023-02-28T13:27:35;19.40;44.60
59572;DHT22;59406;45.602;11.904;2023-02-28T13:38:46;17.20;48.00
59572;DHT22;59406;45.602;11.904;2023-02-28T13:44:09;17.90;46.70
59572;DHT22;59406;45.602;11.904;2023-02-28T13:49:31;17.90;46.30
59572;DHT22;59406;45.602;11.904;2023-02-28T14:11:45;18.90;45.80
59572;DHT22;59406;45.602;11.904;2023-02-28T14:17:04;18.90;43.90
59572;DHT22;59406;45.602;11.904;2023-02-28T14:19:32;18.40;42.90
59572;DHT22;59406;45.602;11.904;2023-02-28T14:31:02;18.30;45.30
59572;DHT22;59406;45.602;11.904;2023-02-28T14:33:57;18.10;45.80
59572;DHT22;59406;45.602;11.904;2023-02-28T14:36:30;18.60;44.20
59572;DHT22;59406;45.602;11.904;2023-02-28T14:39:00;16.60;46.70
59572;DHT22;59406;45.602;11.904;2023-02-28T14:41:33;16.50;48.40
59572;DHT22;59406;45.602;11.904;2023-02-28T14:44:22;17.20;46.80
59572;DHT22;59406;45.602;11.904;2023-02-28T14:46:57;17.00;48.10
59572;DHT22;59406;45.602;11.904;2023-02-28T14:49:36;17.60;47.80
59572;DHT22;59406;45.602;11.904;2023-02-28T14:54:38;18.40;44.40
59572;DHT22;59406;45.602;11.904;2023-02-28T14:57:05;18.20;44.70
59572;DHT22;59406;45.602;11.904;2023-02-28T14:59:34;18.40;44.50
59572;DHT22;59406;45.602;11.904;2023-02-28T15:02:36;18.00;47.90
59572;DHT22;59406;45.602;11.904;2023-02-28T15:07:45;18.40;43.10
59572;DHT22;59406;45.602;11.904;2023-02-28T15:10:25;18.90;42.80
59572;DHT22;59406;45.602;11.904;2023-02-28T15:12:59;19.10;42.40
59572;DHT22;59406;45.602;11.904;2023-02-28T15:15:38;19.30;42.20
59572;DHT22;59406;45.602;11.904;2023-02-28T15:18:10;17.60;45.00
59572;DHT22;59406;45.602;11.904;2023-02-28T15:20:40;16.70;48.20
59572;DHT22;59406;45.602;11.904;2023-02-28T15:23:08;16.30;50.30
59572;DHT22;59406;45.602;11.904;2023-02-28T15:25:34;15.30;51.00
59572;DHT22;59406;45.602;11.904;2023-02-28T15:28:00;14.50;62.80
59572;DHT22;59406;45.602;11.904;2023-02-28T15:30:29;14.00;62.70
59572;DHT22;59406;45.602;11.904;2023-02-28T15:35:45;14.30;63.00
59572;DHT22;59406;45.602;11.904;2023-02-28T15:38:25;14.00;63.30
59572;DHT22;59406;45.602;11.904;2023-02-28T15:40:57;13.80;63.40
59572;DHT22;59406;45.602;11.904;2023-02-28T15:43:32;13.80;64.60
59572;DHT22;59406;45.602;11.904;2023-02-28T15:46:07;13.80;63.90
59572;DHT22;59406;45.602;11.904;2023-02-28T15:48:53;13.80;65.30
59572;DHT22;59406;45.602;11.904;2023-02-28T15:54:00;13.60;66.40
59572;DHT22;59406;45.602;11.904;2023-02-28T15:56:38;13.70;65.90
59572;DHT22;59406;45.602;11.904;2023-02-28T15:59:25;13.60;66.20
59572;DHT22;59406;45.602;11.904;2023-02-28T16:07:24;12.90;67.20
59572;DHT22;59406;45.602;11.904;2023-02-28T16:09:51;12.80;67.30
59572;DHT22;59406;45.602;11.904;2023-02-28T16:12:17;12.90;67.20
59572;DHT22;59406;45.602;11.904;2023-02-28T16:14:43;12.80;67.00
59572;DHT22;59406;45.602;11.904;2023-02-28T16:17:23;12.50;69.00
59572;DHT22;59406;45.602;11.904;2023-02-28T16:19:50;12.20;69.20
59572;DHT22;59406;45.602;11.904;2023-02-28T16:22:16;12.10;68.80
59572;DHT22;59406;45.602;11.904;2023-02-28T16:24:42;11.90;69.30
59572;DHT22;59406;45.602;11.904;2023-02-28T16:27:17;11.70;69.10
59572;DHT22;59406;45.602;11.904;2023-02-28T16:29:43;11.70;69.50
59572;DHT22;59406;45.602;11.904;2023-02-28T16:32:13;11.60;69.40
59572;DHT22;59406;45.602;11.904;2023-02-28T16:34:41;11.60;69.70
59572;DHT22;59406;45.602;11.904;2023-02-28T16:37:13;11.90;69.30
59572;DHT22;59406;45.602;11.904;2023-02-28T16:39:39;12.20;69.10
59572;DHT22;59406;45.602;11.904;2023-02-28T16:42:05;12.40;69.00
59572;DHT22;59406;45.602;11.904;2023-02-28T16:44:34;11.90;69.30
59572;DHT22;59406;45.602;11.904;2023-02-28T16:47:02;11.50;69.50
59572;DHT22;59406;45.602;11.904;2023-02-28T16:49:28;11.20;69.60
59572;DHT22;59406;45.602;11.904;2023-02-28T16:51:54;11.00;69.90
59572;DHT22;59406;45.602;11.904;2023-02-28T16:54:20;10.90;69.90
59572;DHT22;59406;45.602;11.904;2023-02-28T16:56:48;10.70;70.10
59572;DHT22;59406;45.602;11.904;2023-02-28T16:59:18;10.70;69.90
59572;DHT22;59406;45.602;11.904;2023-02-28T17:01:45;10.50;70.20
59572;DHT22;59406;45.602;11.904;2023-02-28T17:04:11;10.40;70.30
59572;DHT22;59406;45.602;11.904;2023-02-28T17:06:37;10.30;70.20
59572;DHT22;59406;45.602;11.904;2023-02-28T17:09:03;10.20;70.30
59572;DHT22;59406;45.602;11.904;2023-02-28T17:11:29;10.20;70.30
59572;DHT22;59406;45.602;11.904;2023-02-28T17:13:55;10.10;70.30
59572;DHT22;59406;45.602;11.904;2023-02-28T17:16:33;10.10;70.40
59572;DHT22;59406;45.602;11.904;2023-02-28T17:19:02;10.00;70.70
59572;DHT22;59406;45.602;11.904;2023-02-28T17:21:29;9.90;70.50
59572;DHT22;59406;45.602;11.904;2023-02-28T17:23:56;9.70;70.90
59572;DHT22;59406;45.602;11.904;2023-02-28T17:26:24;9.50;70.70
59572;DHT22;59406;45.602;11.904;2023-02-28T17:28:51;9.50;70.70
59572;DHT22;59406;45.602;11.904;2023-02-28T17:31:17;9.30;71.20
59572;DHT22;59406;45.602;11.904;2023-02-28T17:33:44;9.10;71.30
59572;DHT22;59406;45.602;11.904;2023-02-28T17:36:14;9.00;71.60
59572;DHT22;59406;45.602;11.904;2023-02-28T17:38:40;8.90;71.40
59572;DHT22;59406;45.602;11.904;2023-02-28T17:41:07;8.70;72.60
59572;DHT22;59406;45.602;11.904;2023-02-28T17:43:34;8.40;72.90
59572;DHT22;59406;45.602;11.904;2023-02-28T17:46:00;8.10;73.00
59572;DHT22;59406;45.602;11.904;2023-02-28T17:48:26;8.10;73.40
59572;DHT22;59406;45.602;11.904;2023-02-28T17:50:53;8.00;73.20
59572;DHT22;59406;45.602;11.904;2023-02-28T17:53:19;8.00;73.10
59572;DHT22;59406;45.602;11.904;2023-02-28T17:55:51;7.80;72.90
59572;DHT22;59406;45.602;11.904;2023-02-28T17:58:17;7.70;73.50
59572;DHT22;59406;45.602;11.904;2023-02-28T18:00:44;7.70;73.10
59572;DHT22;59406;45.602;11.904;2023-02-28T18:03:11;7.50;72.70
59572;DHT22;59406;45.602;11.904;2023-02-28T18:05:39;7.50;73.20
59572;DHT22;59406;45.602;11.904;2023-02-28T18:08:05;7.30;73.70
59572;DHT22;59406;45.602;11.904;2023-02-28T18:10:31;7.20;73.30
59572;DHT22;59406;45.602;11.904;2023-02-28T18:12:59;7.20;73.00
59572;DHT22;59406;45.602;11.904;2023-02-28T18:15:25;7.30;72.90
59572;DHT22;59406;45.602;11.904;2023-02-28T18:17:51;7.20;73.20
59572;DHT22;59406;45.602;11.904;2023-02-28T18:20:17;6.90;73.80
59572;DHT22;59406;45.602;11.904;2023-02-28T18:22:43;6.70;74.10